Archival Weather

Norman Y Mineta San Jose Intl

San Jose, California (KSJC)

Report from: Sunday, February 18, 2024 5:53 PM PST
Current time: Friday, June 21, 2024 12:19 AM PDT

Current weather – Weather history – Daily summaries
Weather forecast

Temperature17.2°C (63.0°F)
Dew point12.8°C (55.0°F)
Winds 14 kts (7.2 m/s, 16.1 mph) Southeast (140°)
Visibility10 mi. (16.1 km)
Clouds Few clouds 1,800 ft. (549 m)
Ceiling: Broken clouds 4,200 ft. (1,280 m)
Overcast 5,500 ft. (1,676 m)
Altimeter29.73 in.Hg (1007 mB)
Precipitiation0.01 in. (0 mm)
Precip. events Rain ended 1:15 AM
Relative humidity75 %
Density altitude691 ft. (210 m)
Sea-level pressure100.7 kPa (1007 mB, 29.72 in.Hg)
Remarks Corrected report
Automated weather observing station with precipitation discriminator
Flight conditions Visual Meteorological Conditions
Raw dataKSJC 190153Z COR 14014KT 10SM FEW018 BKN042 OVC055 17/13 A2973 RMK AO2 RAE15 SLP066 P0001 T01720128
An error has occurred. This application may no longer respond until reloaded. Reload 🗙